sensor_id;sensor_type;location;lat;lon;timestamp;P1;durP1;ratioP1;P2;durP2;ratioP2
34982;SDS011;21187;50.976;13.720;2023-04-15T00:03:43;2.67;;;1.33;;
34982;SDS011;21187;50.976;13.720;2023-04-15T00:08:47;3.83;;;1.60;;
34982;SDS011;21187;50.976;13.720;2023-04-15T00:13:49;4.32;;;1.55;;
34982;SDS011;21187;50.976;13.720;2023-04-15T00:18:51;3.03;;;1.60;;
34982;SDS011;21187;50.976;13.720;2023-04-15T00:23:53;1.70;;;1.25;;
34982;SDS011;21187;50.976;13.720;2023-04-15T00:28:55;2.67;;;1.48;;
34982;SDS011;21187;50.976;13.720;2023-04-15T00:33:57;2.08;;;1.33;;
34982;SDS011;21187;50.976;13.720;2023-04-15T00:39:00;1.95;;;1.02;;
34982;SDS011;21187;50.976;13.720;2023-04-15T00:44:03;1.98;;;1.00;;
34982;SDS011;21187;50.976;13.720;2023-04-15T00:49:08;1.80;;;1.05;;
34982;SDS011;21187;50.976;13.720;2023-04-15T00:54:11;1.33;;;0.93;;
34982;SDS011;21187;50.976;13.720;2023-04-15T00:59:14;1.38;;;0.95;;
34982;SDS011;21187;50.976;13.720;2023-04-15T01:04:19;1.55;;;1.10;;
34982;SDS011;21187;50.976;13.720;2023-04-15T01:09:20;1.42;;;1.15;;
34982;SDS011;21187;50.976;13.720;2023-04-15T01:14:24;2.10;;;1.20;;
34982;SDS011;21187;50.976;13.720;2023-04-15T01:19:26;3.15;;;2.00;;
34982;SDS011;21187;50.976;13.720;2023-04-15T01:24:29;4.20;;;2.10;;
34982;SDS011;21187;50.976;13.720;2023-04-15T01:29:34;4.75;;;2.20;;
34982;SDS011;21187;50.976;13.720;2023-04-15T01:34:39;2.22;;;1.52;;
34982;SDS011;21187;50.976;13.720;2023-04-15T01:39:41;2.20;;;1.58;;
34982;SDS011;21187;50.976;13.720;2023-04-15T01:44:43;2.78;;;1.52;;
34982;SDS011;21187;50.976;13.720;2023-04-15T01:49:45;3.60;;;1.67;;
34982;SDS011;21187;50.976;13.720;2023-04-15T01:54:47;1.80;;;1.10;;
34982;SDS011;21187;50.976;13.720;2023-04-15T01:59:49;2.05;;;1.20;;
34982;SDS011;21187;50.976;13.720;2023-04-15T02:04:51;2.30;;;1.30;;
34982;SDS011;21187;50.976;13.720;2023-04-15T02:09:53;1.98;;;1.17;;
34982;SDS011;21187;50.976;13.720;2023-04-15T02:14:55;1.45;;;1.35;;
34982;SDS011;21187;50.976;13.720;2023-04-15T02:19:57;2.60;;;1.42;;
34982;SDS011;21187;50.976;13.720;2023-04-15T02:25:00;1.70;;;1.30;;
34982;SDS011;21187;50.976;13.720;2023-04-15T02:30:02;5.55;;;1.40;;
34982;SDS011;21187;50.976;13.720;2023-04-15T02:35:04;1.63;;;1.17;;
34982;SDS011;21187;50.976;13.720;2023-04-15T02:40:08;1.83;;;1.25;;
34982;SDS011;21187;50.976;13.720;2023-04-15T02:45:12;2.65;;;1.60;;
34982;SDS011;21187;50.976;13.720;2023-04-15T02:50:15;3.20;;;1.80;;
34982;SDS011;21187;50.976;13.720;2023-04-15T02:55:17;2.65;;;1.30;;
34982;SDS011;21187;50.976;13.720;2023-04-15T03:00:19;2.00;;;1.23;;
34982;SDS011;21187;50.976;13.720;2023-04-15T03:05:23;1.08;;;0.93;;
34982;SDS011;21187;50.976;13.720;2023-04-15T03:10:25;2.38;;;1.58;;
34982;SDS011;21187;50.976;13.720;2023-04-15T03:15:27;1.10;;;1.00;;
34982;SDS011;21187;50.976;13.720;2023-04-15T03:20:30;1.85;;;1.23;;
34982;SDS011;21187;50.976;13.720;2023-04-15T03:25:32;1.70;;;1.30;;
34982;SDS011;21187;50.976;13.720;2023-04-15T03:30:34;1.23;;;1.10;;
34982;SDS011;21187;50.976;13.720;2023-04-15T03:35:36;2.50;;;1.65;;
34982;SDS011;21187;50.976;13.720;2023-04-15T03:40:41;2.03;;;1.27;;
34982;SDS011;21187;50.976;13.720;2023-04-15T03:45:43;2.45;;;1.33;;
34982;SDS011;21187;50.976;13.720;2023-04-15T03:50:45;2.22;;;1.40;;
34982;SDS011;21187;50.976;13.720;2023-04-15T03:55:47;3.25;;;1.27;;
34982;SDS011;21187;50.976;13.720;2023-04-15T04:00:49;1.80;;;1.40;;
34982;SDS011;21187;50.976;13.720;2023-04-15T04:05:51;1.85;;;1.40;;
34982;SDS011;21187;50.976;13.720;2023-04-15T04:10:52;2.30;;;1.52;;
34982;SDS011;21187;50.976;13.720;2023-04-15T04:15:54;1.85;;;1.50;;
34982;SDS011;21187;50.976;13.720;2023-04-15T04:20:56;51.40;;;4.70;;
34982;SDS011;21187;50.976;13.720;2023-04-15T04:25:58;3.80;;;1.58;;
34982;SDS011;21187;50.976;13.720;2023-04-15T04:31:00;2.33;;;1.60;;
34982;SDS011;21187;50.976;13.720;2023-04-15T04:36:02;1.60;;;1.25;;
34982;SDS011;21187;50.976;13.720;2023-04-15T04:41:04;2.70;;;1.50;;
34982;SDS011;21187;50.976;13.720;2023-04-15T04:46:06;3.10;;;1.80;;
34982;SDS011;21187;50.976;13.720;2023-04-15T04:51:08;2.85;;;1.85;;
34982;SDS011;21187;50.976;13.720;2023-04-15T04:56:10;4.28;;;2.08;;
34982;SDS011;21187;50.976;13.720;2023-04-15T05:01:12;1.17;;;1.02;;
34982;SDS011;21187;50.976;13.720;2023-04-15T05:06:14;1.67;;;1.35;;
34982;SDS011;21187;50.976;13.720;2023-04-15T05:11:16;1.33;;;1.15;;
34982;SDS011;21187;50.976;13.720;2023-04-15T05:16:17;1.20;;;0.90;;
34982;SDS011;21187;50.976;13.720;2023-04-15T05:21:20;1.08;;;0.88;;
34982;SDS011;21187;50.976;13.720;2023-04-15T05:26:22;2.72;;;0.88;;
34982;SDS011;21187;50.976;13.720;2023-04-15T05:31:24;0.63;;;0.60;;
34982;SDS011;21187;50.976;13.720;2023-04-15T05:36:27;0.98;;;0.70;;
34982;SDS011;21187;50.976;13.720;2023-04-15T05:41:29;0.50;;;0.50;;
34982;SDS011;21187;50.976;13.720;2023-04-15T05:46:31;1.00;;;0.68;;
34982;SDS011;21187;50.976;13.720;2023-04-15T05:51:32;1.42;;;0.60;;
34982;SDS011;21187;50.976;13.720;2023-04-15T05:56:34;0.47;;;0.47;;
34982;SDS011;21187;50.976;13.720;2023-04-15T06:01:37;0.60;;;0.50;;
34982;SDS011;21187;50.976;13.720;2023-04-15T06:06:39;0.20;;;0.20;;
34982;SDS011;21187;50.976;13.720;2023-04-15T06:11:41;0.68;;;0.43;;
34982;SDS011;21187;50.976;13.720;2023-04-15T06:16:43;1.08;;;0.70;;
34982;SDS011;21187;50.976;13.720;2023-04-15T06:21:45;0.80;;;0.50;;
34982;SDS011;21187;50.976;13.720;2023-04-15T06:26:46;1.33;;;0.80;;
34982;SDS011;21187;50.976;13.720;2023-04-15T06:31:48;1.55;;;1.05;;
34982;SDS011;21187;50.976;13.720;2023-04-15T06:36:50;2.78;;;1.70;;
34982;SDS011;21187;50.976;13.720;2023-04-15T06:41:52;5.93;;;4.97;;
34982;SDS011;21187;50.976;13.720;2023-04-15T06:46:55;3.92;;;2.08;;
34982;SDS011;21187;50.976;13.720;2023-04-15T06:51:57;1.52;;;0.80;;
34982;SDS011;21187;50.976;13.720;2023-04-15T06:56:58;1.45;;;1.25;;
34982;SDS011;21187;50.976;13.720;2023-04-15T07:02:00;1.95;;;0.75;;
34982;SDS011;21187;50.976;13.720;2023-04-15T07:07:02;1.23;;;0.60;;
34982;SDS011;21187;50.976;13.720;2023-04-15T07:12:04;1.58;;;0.68;;
34982;SDS011;21187;50.976;13.720;2023-04-15T07:17:06;3.30;;;0.90;;
34982;SDS011;21187;50.976;13.720;2023-04-15T07:22:09;1.00;;;0.85;;
34982;SDS011;21187;50.976;13.720;2023-04-15T07:27:11;5.45;;;1.00;;
34982;SDS011;21187;50.976;13.720;2023-04-15T07:32:13;2.45;;;1.50;;
34982;SDS011;21187;50.976;13.720;2023-04-15T07:37:15;2.67;;;1.35;;
34982;SDS011;21187;50.976;13.720;2023-04-15T07:42:17;2.78;;;1.40;;
34982;SDS011;21187;50.976;13.720;2023-04-15T07:47:19;3.05;;;1.90;;
34982;SDS011;21187;50.976;13.720;2023-04-15T07:52:21;5.10;;;1.45;;
34982;SDS011;21187;50.976;13.720;2023-04-15T07:57:23;2.33;;;1.52;;
34982;SDS011;21187;50.976;13.720;2023-04-15T08:02:25;1.80;;;1.25;;
34982;SDS011;21187;50.976;13.720;2023-04-15T08:07:27;1.40;;;0.90;;
34982;SDS011;21187;50.976;13.720;2023-04-15T08:12:29;2.00;;;0.98;;
34982;SDS011;21187;50.976;13.720;2023-04-15T08:17:31;1.67;;;1.05;;
34982;SDS011;21187;50.976;13.720;2023-04-15T08:22:32;1.67;;;1.10;;
34982;SDS011;21187;50.976;13.720;2023-04-15T08:27:34;1.98;;;1.13;;
34982;SDS011;21187;50.976;13.720;2023-04-15T08:32:37;1.70;;;1.00;;
34982;SDS011;21187;50.976;13.720;2023-04-15T08:37:39;5.45;;;1.48;;
34982;SDS011;21187;50.976;13.720;2023-04-15T08:42:42;5.28;;;1.63;;
34982;SDS011;21187;50.976;13.720;2023-04-15T08:47:49;3.47;;;1.70;;
34982;SDS011;21187;50.976;13.720;2023-04-15T08:52:59;1.90;;;1.27;;
34982;SDS011;21187;50.976;13.720;2023-04-15T08:58:02;0.95;;;0.82;;
34982;SDS011;21187;50.976;13.720;2023-04-15T09:03:05;2.65;;;1.55;;
34982;SDS011;21187;50.976;13.720;2023-04-15T09:08:07;2.53;;;1.70;;
34982;SDS011;21187;50.976;13.720;2023-04-15T09:13:10;2.35;;;1.83;;
34982;SDS011;21187;50.976;13.720;2023-04-15T09:18:12;4.57;;;2.42;;
34982;SDS011;21187;50.976;13.720;2023-04-15T09:23:27;3.88;;;2.50;;
34982;SDS011;21187;50.976;13.720;2023-04-15T09:28:29;3.03;;;2.20;;
34982;SDS011;21187;50.976;13.720;2023-04-15T09:33:31;4.50;;;2.45;;
34982;SDS011;21187;50.976;13.720;2023-04-15T09:38:33;4.10;;;2.40;;
34982;SDS011;21187;50.976;13.720;2023-04-15T09:43:38;3.88;;;2.92;;
34982;SDS011;21187;50.976;13.720;2023-04-15T09:48:41;5.43;;;2.97;;
34982;SDS011;21187;50.976;13.720;2023-04-15T09:53:43;4.93;;;3.40;;
34982;SDS011;21187;50.976;13.720;2023-04-15T09:58:44;5.97;;;3.40;;
34982;SDS011;21187;50.976;13.720;2023-04-15T10:03:47;6.35;;;3.10;;
34982;SDS011;21187;50.976;13.720;2023-04-15T10:08:50;4.88;;;2.70;;
34982;SDS011;21187;50.976;13.720;2023-04-15T10:13:51;4.80;;;2.80;;
34982;SDS011;21187;50.976;13.720;2023-04-15T10:18:55;6.43;;;3.00;;
34982;SDS011;21187;50.976;13.720;2023-04-15T10:23:59;3.67;;;2.50;;
34982;SDS011;21187;50.976;13.720;2023-04-15T10:29:02;4.47;;;2.65;;
34982;SDS011;21187;50.976;13.720;2023-04-15T10:34:05;6.68;;;2.80;;
34982;SDS011;21187;50.976;13.720;2023-04-15T10:44:49;5.80;;;2.53;;
34982;SDS011;21187;50.976;13.720;2023-04-15T10:50:01;4.82;;;3.10;;
34982;SDS011;21187;50.976;13.720;2023-04-15T11:00:15;4.85;;;2.80;;
34982;SDS011;21187;50.976;13.720;2023-04-15T11:05:18;4.75;;;2.63;;
34982;SDS011;21187;50.976;13.720;2023-04-15T11:15:35;4.05;;;2.25;;
34982;SDS011;21187;50.976;13.720;2023-04-15T11:20:50;2.63;;;1.77;;
34982;SDS011;21187;50.976;13.720;2023-04-15T11:25:55;4.63;;;2.22;;
34982;SDS011;21187;50.976;13.720;2023-04-15T11:31:04;2.85;;;2.17;;
34982;SDS011;21187;50.976;13.720;2023-04-15T11:36:07;3.67;;;2.25;;
34982;SDS011;21187;50.976;13.720;2023-04-15T11:41:11;4.40;;;2.38;;
34982;SDS011;21187;50.976;13.720;2023-04-15T11:46:13;2.85;;;2.20;;
34982;SDS011;21187;50.976;13.720;2023-04-15T11:51:17;3.38;;;2.40;;
34982;SDS011;21187;50.976;13.720;2023-04-15T11:56:22;3.97;;;3.00;;
34982;SDS011;21187;50.976;13.720;2023-04-15T12:06:40;7.95;;;4.10;;
34982;SDS011;21187;50.976;13.720;2023-04-15T12:11:49;5.78;;;2.88;;
34982;SDS011;21187;50.976;13.720;2023-04-15T12:16:55;4.68;;;2.78;;
34982;SDS011;21187;50.976;13.720;2023-04-15T12:22:01;2.38;;;2.15;;
34982;SDS011;21187;50.976;13.720;2023-04-15T12:27:12;4.57;;;2.03;;
34982;SDS011;21187;50.976;13.720;2023-04-15T12:32:17;2.10;;;1.73;;
34982;SDS011;21187;50.976;13.720;2023-04-15T12:37:23;5.03;;;2.50;;
34982;SDS011;21187;50.976;13.720;2023-04-15T12:42:25;3.53;;;2.40;;
34982;SDS011;21187;50.976;13.720;2023-04-15T12:47:28;2.60;;;1.95;;
34982;SDS011;21187;50.976;13.720;2023-04-15T12:52:30;4.20;;;2.28;;
34982;SDS011;21187;50.976;13.720;2023-04-15T12:57:32;3.30;;;1.92;;
34982;SDS011;21187;50.976;13.720;2023-04-15T13:02:34;3.65;;;2.60;;
34982;SDS011;21187;50.976;13.720;2023-04-15T13:07:37;3.42;;;2.13;;
34982;SDS011;21187;50.976;13.720;2023-04-15T13:12:39;3.97;;;2.10;;
34982;SDS011;21187;50.976;13.720;2023-04-15T13:17:42;6.07;;;2.28;;
34982;SDS011;21187;50.976;13.720;2023-04-15T13:22:43;4.10;;;2.35;;
34982;SDS011;21187;50.976;13.720;2023-04-15T13:27:45;2.97;;;1.65;;
34982;SDS011;21187;50.976;13.720;2023-04-15T13:32:48;3.10;;;2.10;;
34982;SDS011;21187;50.976;13.720;2023-04-15T13:37:52;3.22;;;2.03;;
34982;SDS011;21187;50.976;13.720;2023-04-15T13:42:55;2.70;;;1.77;;
34982;SDS011;21187;50.976;13.720;2023-04-15T13:47:58;3.70;;;1.83;;
34982;SDS011;21187;50.976;13.720;2023-04-15T13:53:01;3.53;;;2.13;;
34982;SDS011;21187;50.976;13.720;2023-04-15T13:58:02;3.47;;;2.20;;
34982;SDS011;21187;50.976;13.720;2023-04-15T14:03:04;2.80;;;1.80;;
34982;SDS011;21187;50.976;13.720;2023-04-15T14:08:07;3.78;;;2.35;;
34982;SDS011;21187;50.976;13.720;2023-04-15T14:13:08;4.25;;;2.45;;
34982;SDS011;21187;50.976;13.720;2023-04-15T14:18:10;3.03;;;1.90;;
34982;SDS011;21187;50.976;13.720;2023-04-15T14:23:12;3.13;;;1.90;;
34982;SDS011;21187;50.976;13.720;2023-04-15T14:28:15;3.47;;;1.85;;
34982;SDS011;21187;50.976;13.720;2023-04-15T14:33:17;2.67;;;1.77;;
34982;SDS011;21187;50.976;13.720;2023-04-15T14:38:19;4.07;;;2.38;;
34982;SDS011;21187;50.976;13.720;2023-04-15T14:43:23;4.25;;;1.65;;
34982;SDS011;21187;50.976;13.720;2023-04-15T14:48:24;2.67;;;1.80;;
34982;SDS011;21187;50.976;13.720;2023-04-15T14:53:27;3.55;;;1.77;;
34982;SDS011;21187;50.976;13.720;2023-04-15T14:58:29;2.08;;;1.35;;
34982;SDS011;21187;50.976;13.720;2023-04-15T15:03:30;3.53;;;2.00;;
34982;SDS011;21187;50.976;13.720;2023-04-15T15:08:33;3.55;;;1.80;;
34982;SDS011;21187;50.976;13.720;2023-04-15T15:13:37;1.55;;;1.30;;
34982;SDS011;21187;50.976;13.720;2023-04-15T15:18:40;4.32;;;1.52;;
34982;SDS011;21187;50.976;13.720;2023-04-15T15:23:42;2.47;;;1.63;;
34982;SDS011;21187;50.976;13.720;2023-04-15T15:28:45;4.45;;;2.08;;
34982;SDS011;21187;50.976;13.720;2023-04-15T15:33:47;2.55;;;1.48;;
34982;SDS011;21187;50.976;13.720;2023-04-15T15:38:49;3.45;;;2.10;;
34982;SDS011;21187;50.976;13.720;2023-04-15T15:43:52;2.38;;;1.80;;
34982;SDS011;21187;50.976;13.720;2023-04-15T15:48:54;4.57;;;1.45;;
34982;SDS011;21187;50.976;13.720;2023-04-15T15:53:56;5.47;;;2.63;;
34982;SDS011;21187;50.976;13.720;2023-04-15T15:58:58;2.63;;;1.52;;
34982;SDS011;21187;50.976;13.720;2023-04-15T16:04:00;4.05;;;2.15;;
34982;SDS011;21187;50.976;13.720;2023-04-15T16:09:02;2.53;;;1.60;;
34982;SDS011;21187;50.976;13.720;2023-04-15T16:14:04;3.30;;;2.00;;
34982;SDS011;21187;50.976;13.720;2023-04-15T16:19:06;6.90;;;6.20;;
34982;SDS011;21187;50.976;13.720;2023-04-15T16:24:08;3.58;;;2.28;;
34982;SDS011;21187;50.976;13.720;2023-04-15T16:29:10;4.47;;;2.33;;
34982;SDS011;21187;50.976;13.720;2023-04-15T16:34:12;7.55;;;2.50;;
34982;SDS011;21187;50.976;13.720;2023-04-15T16:39:16;4.72;;;2.22;;
34982;SDS011;21187;50.976;13.720;2023-04-15T16:44:18;3.75;;;2.67;;
34982;SDS011;21187;50.976;13.720;2023-04-15T16:49:20;4.30;;;2.40;;
34982;SDS011;21187;50.976;13.720;2023-04-15T16:54:22;4.25;;;2.58;;
34982;SDS011;21187;50.976;13.720;2023-04-15T16:59:24;5.85;;;3.40;;
34982;SDS011;21187;50.976;13.720;2023-04-15T17:04:26;12.60;;;8.73;;
34982;SDS011;21187;50.976;13.720;2023-04-15T17:09:29;13.40;;;7.68;;
34982;SDS011;21187;50.976;13.720;2023-04-15T17:14:31;7.65;;;4.43;;
34982;SDS011;21187;50.976;13.720;2023-04-15T17:19:33;4.60;;;3.10;;
34982;SDS011;21187;50.976;13.720;2023-04-15T17:24:35;14.07;;;8.23;;
34982;SDS011;21187;50.976;13.720;2023-04-15T17:29:37;6.55;;;3.97;;
34982;SDS011;21187;50.976;13.720;2023-04-15T17:34:39;24.45;;;15.63;;
34982;SDS011;21187;50.976;13.720;2023-04-15T17:39:51;20.08;;;9.23;;
34982;SDS011;21187;50.976;13.720;2023-04-15T17:44:53;25.17;;;10.80;;
34982;SDS011;21187;50.976;13.720;2023-04-15T17:49:55;21.02;;;13.35;;
34982;SDS011;21187;50.976;13.720;2023-04-15T17:54:57;17.13;;;10.02;;
34982;SDS011;21187;50.976;13.720;2023-04-15T17:59:59;12.68;;;6.03;;
34982;SDS011;21187;50.976;13.720;2023-04-15T18:05:01;27.10;;;15.65;;
34982;SDS011;21187;50.976;13.720;2023-04-15T18:10:03;8.57;;;5.25;;
34982;SDS011;21187;50.976;13.720;2023-04-15T18:15:06;7.68;;;4.45;;
34982;SDS011;21187;50.976;13.720;2023-04-15T18:20:10;10.52;;;5.18;;
34982;SDS011;21187;50.976;13.720;2023-04-15T18:25:13;9.43;;;5.22;;
34982;SDS011;21187;50.976;13.720;2023-04-15T18:30:15;11.00;;;5.80;;
34982;SDS011;21187;50.976;13.720;2023-04-15T18:35:18;10.15;;;5.90;;
34982;SDS011;21187;50.976;13.720;2023-04-15T18:40:21;10.98;;;5.78;;
34982;SDS011;21187;50.976;13.720;2023-04-15T18:45:23;10.40;;;5.93;;
34982;SDS011;21187;50.976;13.720;2023-04-15T18:50:27;8.55;;;4.72;;
34982;SDS011;21187;50.976;13.720;2023-04-15T18:55:29;11.98;;;5.65;;
34982;SDS011;21187;50.976;13.720;2023-04-15T19:00:31;8.68;;;5.20;;
34982;SDS011;21187;50.976;13.720;2023-04-15T19:05:34;39.92;;;17.85;;
34982;SDS011;21187;50.976;13.720;2023-04-15T19:10:37;24.10;;;13.02;;
34982;SDS011;21187;50.976;13.720;2023-04-15T19:15:39;17.38;;;9.77;;
34982;SDS011;21187;50.976;13.720;2023-04-15T19:20:42;24.05;;;11.15;;
34982;SDS011;21187;50.976;13.720;2023-04-15T19:25:44;19.08;;;9.88;;
34982;SDS011;21187;50.976;13.720;2023-04-15T19:30:46;15.07;;;9.43;;
34982;SDS011;21187;50.976;13.720;2023-04-15T19:35:49;19.30;;;8.63;;
34982;SDS011;21187;50.976;13.720;2023-04-15T19:40:51;15.40;;;7.60;;
34982;SDS011;21187;50.976;13.720;2023-04-15T19:45:52;13.93;;;7.93;;
34982;SDS011;21187;50.976;13.720;2023-04-15T19:50:55;12.77;;;7.13;;
34982;SDS011;21187;50.976;13.720;2023-04-15T19:55:58;12.35;;;7.63;;
34982;SDS011;21187;50.976;13.720;2023-04-15T20:01:00;13.90;;;6.97;;
34982;SDS011;21187;50.976;13.720;2023-04-15T20:06:02;12.80;;;7.65;;
34982;SDS011;21187;50.976;13.720;2023-04-15T20:11:04;14.10;;;8.15;;
34982;SDS011;21187;50.976;13.720;2023-04-15T20:16:06;16.00;;;8.98;;
34982;SDS011;21187;50.976;13.720;2023-04-15T20:21:08;14.77;;;9.35;;
34982;SDS011;21187;50.976;13.720;2023-04-15T20:26:10;17.90;;;8.75;;
34982;SDS011;21187;50.976;13.720;2023-04-15T20:31:12;18.83;;;10.35;;
34982;SDS011;21187;50.976;13.720;2023-04-15T20:36:13;22.25;;;11.23;;
34982;SDS011;21187;50.976;13.720;2023-04-15T20:41:15;17.67;;;9.88;;
34982;SDS011;21187;50.976;13.720;2023-04-15T20:46:17;19.35;;;10.90;;
34982;SDS011;21187;50.976;13.720;2023-04-15T20:51:22;23.92;;;11.38;;
34982;SDS011;21187;50.976;13.720;2023-04-15T20:56:23;22.17;;;12.18;;
34982;SDS011;21187;50.976;13.720;2023-04-15T21:01:25;22.92;;;12.73;;
34982;SDS011;21187;50.976;13.720;2023-04-15T21:06:27;30.60;;;14.40;;
34982;SDS011;21187;50.976;13.720;2023-04-15T21:11:30;31.30;;;13.70;;
34982;SDS011;21187;50.976;13.720;2023-04-15T21:16:52;27.02;;;14.15;;
34982;SDS011;21187;50.976;13.720;2023-04-15T21:21:54;29.75;;;13.85;;
34982;SDS011;21187;50.976;13.720;2023-04-15T21:26:55;28.00;;;13.30;;
34982;SDS011;21187;50.976;13.720;2023-04-15T21:31:57;24.13;;;12.93;;
34982;SDS011;21187;50.976;13.720;2023-04-15T21:36:59;25.80;;;13.35;;
34982;SDS011;21187;50.976;13.720;2023-04-15T21:42:01;24.40;;;13.85;;
34982;SDS011;21187;50.976;13.720;2023-04-15T21:47:03;29.02;;;13.82;;
34982;SDS011;21187;50.976;13.720;2023-04-15T21:52:05;22.48;;;13.13;;
34982;SDS011;21187;50.976;13.720;2023-04-15T21:57:07;32.72;;;13.55;;
34982;SDS011;21187;50.976;13.720;2023-04-15T22:02:09;26.50;;;13.75;;
34982;SDS011;21187;50.976;13.720;2023-04-15T22:07:11;31.35;;;14.90;;
34982;SDS011;21187;50.976;13.720;2023-04-15T22:12:13;30.73;;;14.85;;
34982;SDS011;21187;50.976;13.720;2023-04-15T22:17:15;30.90;;;14.77;;
34982;SDS011;21187;50.976;13.720;2023-04-15T22:22:16;29.17;;;12.98;;
34982;SDS011;21187;50.976;13.720;2023-04-15T22:27:20;27.95;;;12.98;;
34982;SDS011;21187;50.976;13.720;2023-04-15T22:32:22;27.98;;;13.68;;
34982;SDS011;21187;50.976;13.720;2023-04-15T22:37:23;27.05;;;13.50;;
34982;SDS011;21187;50.976;13.720;2023-04-15T22:42:26;29.20;;;14.02;;
34982;SDS011;21187;50.976;13.720;2023-04-15T22:47:27;32.60;;;13.95;;
34982;SDS011;21187;50.976;13.720;2023-04-15T22:52:29;27.33;;;14.50;;
34982;SDS011;21187;50.976;13.720;2023-04-15T22:57:31;26.40;;;13.88;;
34982;SDS011;21187;50.976;13.720;2023-04-15T23:02:33;25.23;;;14.13;;
34982;SDS011;21187;50.976;13.720;2023-04-15T23:07:35;27.27;;;13.85;;
34982;SDS011;21187;50.976;13.720;2023-04-15T23:12:37;31.30;;;13.90;;
34982;SDS011;21187;50.976;13.720;2023-04-15T23:17:40;30.25;;;14.40;;
34982;SDS011;21187;50.976;13.720;2023-04-15T23:22:43;27.77;;;13.32;;
34982;SDS011;21187;50.976;13.720;2023-04-15T23:27:44;28.58;;;15.10;;
34982;SDS011;21187;50.976;13.720;2023-04-15T23:32:46;27.77;;;14.57;;
34982;SDS011;21187;50.976;13.720;2023-04-15T23:37:48;27.42;;;13.88;;
34982;SDS011;21187;50.976;13.720;2023-04-15T23:42:50;28.05;;;14.00;;
34982;SDS011;21187;50.976;13.720;2023-04-15T23:47:52;30.50;;;13.93;;
34982;SDS011;21187;50.976;13.720;2023-04-15T23:52:54;26.45;;;13.07;;
34982;SDS011;21187;50.976;13.720;2023-04-15T23:57:56;25.92;;;12.50;;
